sensor_id;sensor_type;location;lat;lon;timestamp;pressure;altitude;pressure_sealevel;temperature;humidity
75972;BME280;64651;47.540;19.088;2023-06-24T00:02:34;100513.66;;;18.26;99.34
75972;BME280;64651;47.540;19.088;2023-06-24T00:07:37;100528.09;;;18.28;99.23
75972;BME280;64651;47.540;19.088;2023-06-24T00:12:47;100547.28;;;18.30;98.76
75972;BME280;64651;47.540;19.088;2023-06-24T00:17:49;100550.69;;;18.27;98.26
75972;BME280;64651;47.540;19.088;2023-06-24T00:22:52;100568.38;;;18.31;97.66
75972;BME280;64651;47.540;19.088;2023-06-24T00:27:54;100571.19;;;18.31;96.66
75972;BME280;64651;47.540;19.088;2023-06-24T00:32:56;100574.62;;;18.19;96.96
75972;BME280;64651;47.540;19.088;2023-06-24T00:38:00;100566.28;;;18.28;95.96
75972;BME280;64651;47.540;19.088;2023-06-24T00:43:03;100551.19;;;18.20;96.50
75972;BME280;64651;47.540;19.088;2023-06-24T00:48:06;100555.78;;;18.24;96.56
75972;BME280;64651;47.540;19.088;2023-06-24T00:53:08;100549.06;;;18.25;94.65
75972;BME280;64651;47.540;19.088;2023-06-24T00:58:11;100550.19;;;18.24;94.91
75972;BME280;64651;47.540;19.088;2023-06-24T01:03:18;100535.13;;;18.25;93.43
75972;BME280;64651;47.540;19.088;2023-06-24T01:08:20;100505.16;;;18.31;92.74
75972;BME280;64651;47.540;19.088;2023-06-24T01:13:25;100503.03;;;18.19;93.59
75972;BME280;64651;47.540;19.088;2023-06-24T01:18:36;100502.84;;;18.24;92.60
75972;BME280;64651;47.540;19.088;2023-06-24T01:34:37;100483.38;;;18.07;92.94
75972;BME280;64651;47.540;19.088;2023-06-24T01:40:15;100482.53;;;18.07;91.69
75972;BME280;64651;47.540;19.088;2023-06-24T01:45:28;100467.81;;;18.15;90.05
75972;BME280;64651;47.540;19.088;2023-06-24T01:50:33;100465.84;;;18.07;89.80
75972;BME280;64651;47.540;19.088;2023-06-24T01:55:37;100470.59;;;17.98;90.46
75972;BME280;64651;47.540;19.088;2023-06-24T02:00:41;100477.00;;;17.98;89.77
75972;BME280;64651;47.540;19.088;2023-06-24T02:05:44;100464.84;;;17.86;90.01
75972;BME280;64651;47.540;19.088;2023-06-24T02:10:50;100470.09;;;17.96;88.64
75972;BME280;64651;47.540;19.088;2023-06-24T02:15:54;100449.28;;;18.02;87.59
75972;BME280;64651;47.540;19.088;2023-06-24T02:20:59;100456.66;;;17.89;88.62
75972;BME280;64651;47.540;19.088;2023-06-24T02:26:03;100474.50;;;17.88;88.47
75972;BME280;64651;47.540;19.088;2023-06-24T02:31:09;100469.59;;;17.76;89.41
75972;BME280;64651;47.540;19.088;2023-06-24T02:36:12;100472.88;;;17.78;89.34
75972;BME280;64651;47.540;19.088;2023-06-24T02:41:14;100482.03;;;17.79;88.77
75972;BME280;64651;47.540;19.088;2023-06-24T02:46:17;100484.00;;;17.87;87.22
75972;BME280;64651;47.540;19.088;2023-06-24T02:51:21;100479.91;;;17.84;87.15
75972;BME280;64651;47.540;19.088;2023-06-24T02:56:25;100477.28;;;17.71;87.21
75972;BME280;64651;47.540;19.088;2023-06-24T03:01:28;100486.12;;;17.73;87.15
75972;BME280;64651;47.540;19.088;2023-06-24T03:06:32;100494.28;;;17.69;87.32
75972;BME280;64651;47.540;19.088;2023-06-24T03:11:42;100504.44;;;17.65;87.47
75972;BME280;64651;47.540;19.088;2023-06-24T03:16:44;100500.16;;;17.59;87.58
75972;BME280;64651;47.540;19.088;2023-06-24T03:21:46;100525.06;;;17.64;86.95
75972;BME280;64651;47.540;19.088;2023-06-24T03:26:49;100525.72;;;17.61;86.57
75972;BME280;64651;47.540;19.088;2023-06-24T03:31:58;100528.16;;;17.63;86.75
75972;BME280;64651;47.540;19.088;2023-06-24T03:37:00;100516.84;;;17.59;86.61
75972;BME280;64651;47.540;19.088;2023-06-24T03:42:03;100522.88;;;17.53;87.11
75972;BME280;64651;47.540;19.088;2023-06-24T03:47:05;100525.16;;;17.51;87.21
75972;BME280;64651;47.540;19.088;2023-06-24T03:52:07;100533.34;;;17.47;87.54
75972;BME280;64651;47.540;19.088;2023-06-24T03:57:12;100529.91;;;17.50;87.25
75972;BME280;64651;47.540;19.088;2023-06-24T04:02:14;100556.09;;;17.58;86.98
75972;BME280;64651;47.540;19.088;2023-06-24T04:07:17;100566.34;;;17.71;85.90
75972;BME280;64651;47.540;19.088;2023-06-24T04:12:29;100579.41;;;17.62;86.57
75972;BME280;64651;47.540;19.088;2023-06-24T04:17:31;100597.59;;;17.68;86.09
75972;BME280;64651;47.540;19.088;2023-06-24T04:22:37;100578.78;;;17.73;84.87
75972;BME280;64651;47.540;19.088;2023-06-24T04:27:40;100600.25;;;17.73;85.21
75972;BME280;64651;47.540;19.088;2023-06-24T04:32:42;100586.84;;;17.83;84.53
75972;BME280;64651;47.540;19.088;2023-06-24T04:37:46;100580.13;;;17.93;83.93
75972;BME280;64651;47.540;19.088;2023-06-24T04:42:48;100575.38;;;17.94;83.09
75972;BME280;64651;47.540;19.088;2023-06-24T04:47:51;100577.06;;;18.03;82.71
75972;BME280;64651;47.540;19.088;2023-06-24T04:52:54;100568.22;;;18.10;82.58
75972;BME280;64651;47.540;19.088;2023-06-24T04:57:58;100575.09;;;18.12;81.81
75972;BME280;64651;47.540;19.088;2023-06-24T05:03:00;100583.13;;;18.14;81.73
75972;BME280;64651;47.540;19.088;2023-06-24T05:08:03;100587.41;;;18.20;80.89
75972;BME280;64651;47.540;19.088;2023-06-24T05:13:05;100584.94;;;18.27;80.29
75972;BME280;64651;47.540;19.088;2023-06-24T05:18:08;100584.47;;;18.34;79.92
75972;BME280;64651;47.540;19.088;2023-06-24T05:23:11;100571.84;;;18.53;79.78
75972;BME280;64651;47.540;19.088;2023-06-24T05:28:14;100580.72;;;18.55;78.95
75972;BME280;64651;47.540;19.088;2023-06-24T05:33:16;100592.03;;;18.68;78.47
75972;BME280;64651;47.540;19.088;2023-06-24T05:38:18;100605.47;;;18.83;77.82
75972;BME280;64651;47.540;19.088;2023-06-24T05:43:21;100613.66;;;18.88;77.37
75972;BME280;64651;47.540;19.088;2023-06-24T05:48:23;100609.87;;;18.92;76.59
75972;BME280;64651;47.540;19.088;2023-06-24T05:53:25;100625.94;;;19.13;76.29
75972;BME280;64651;47.540;19.088;2023-06-24T05:58:28;100609.50;;;19.20;75.83
75972;BME280;64651;47.540;19.088;2023-06-24T06:03:31;100618.78;;;19.41;75.37
75972;BME280;64651;47.540;19.088;2023-06-24T06:08:33;100628.75;;;19.59;74.23
75972;BME280;64651;47.540;19.088;2023-06-24T06:13:36;100633.53;;;19.97;73.19
75972;BME280;64651;47.540;19.088;2023-06-24T06:18:39;100636.63;;;20.04;73.15
75972;BME280;64651;47.540;19.088;2023-06-24T06:23:42;100649.03;;;19.85;72.99
75972;BME280;64651;47.540;19.088;2023-06-24T06:28:44;100648.72;;;19.78;73.19
75972;BME280;64651;47.540;19.088;2023-06-24T06:33:47;100657.94;;;19.70;73.60
75972;BME280;64651;47.540;19.088;2023-06-24T06:38:49;100665.53;;;19.70;74.14
75972;BME280;64651;47.540;19.088;2023-06-24T06:43:52;100658.44;;;19.72;74.09
75972;BME280;64651;47.540;19.088;2023-06-24T06:48:55;100663.84;;;19.77;73.95
75972;BME280;64651;47.540;19.088;2023-06-24T06:53:57;100671.88;;;19.88;73.90
75972;BME280;64651;47.540;19.088;2023-06-24T06:59:00;100675.34;;;20.14;73.28
75972;BME280;64651;47.540;19.088;2023-06-24T07:04:02;100669.97;;;20.38;72.73
75972;BME280;64651;47.540;19.088;2023-06-24T07:09:05;100679.53;;;20.29;72.31
75972;BME280;64651;47.540;19.088;2023-06-24T07:14:07;100668.53;;;20.32;71.62
75972;BME280;64651;47.540;19.088;2023-06-24T07:19:10;100664.53;;;20.62;71.74
75972;BME280;64651;47.540;19.088;2023-06-24T07:24:12;100659.97;;;20.79;70.82
75972;BME280;64651;47.540;19.088;2023-06-24T07:29:17;100664.94;;;20.94;69.69
75972;BME280;64651;47.540;19.088;2023-06-24T07:34:20;100670.25;;;21.08;69.75
75972;BME280;64651;47.540;19.088;2023-06-24T07:39:23;100688.69;;;21.41;68.75
75972;BME280;64651;47.540;19.088;2023-06-24T07:44:25;100681.28;;;21.58;67.98
75972;BME280;64651;47.540;19.088;2023-06-24T07:49:27;100690.41;;;21.67;68.32
75972;BME280;64651;47.540;19.088;2023-06-24T07:54:29;100688.84;;;22.02;67.23
75972;BME280;64651;47.540;19.088;2023-06-24T07:59:32;100683.38;;;22.18;66.11
75972;BME280;64651;47.540;19.088;2023-06-24T08:04:35;100682.41;;;22.50;65.03
75972;BME280;64651;47.540;19.088;2023-06-24T08:09:37;100683.38;;;23.50;61.36
75972;BME280;64651;47.540;19.088;2023-06-24T08:14:39;100679.00;;;24.97;56.98
75972;BME280;64651;47.540;19.088;2023-06-24T08:19:42;100685.38;;;25.33;54.78
75972;BME280;64651;47.540;19.088;2023-06-24T08:24:46;100682.50;;;25.94;53.10
75972;BME280;64651;47.540;19.088;2023-06-24T08:29:49;100684.59;;;27.02;50.42
75972;BME280;64651;47.540;19.088;2023-06-24T08:34:51;100681.44;;;27.41;49.43
75972;BME280;64651;47.540;19.088;2023-06-24T08:39:54;100674.56;;;27.38;49.44
75972;BME280;64651;47.540;19.088;2023-06-24T08:44:56;100673.25;;;27.66;47.91
75972;BME280;64651;47.540;19.088;2023-06-24T08:50:04;100698.91;;;27.17;48.74
75972;BME280;64651;47.540;19.088;2023-06-24T08:55:06;100682.81;;;27.91;47.04
75972;BME280;64651;47.540;19.088;2023-06-24T09:00:12;100682.00;;;29.00;45.43
75972;BME280;64651;47.540;19.088;2023-06-24T09:05:18;100670.97;;;30.06;42.38
75972;BME280;64651;47.540;19.088;2023-06-24T09:10:34;100677.66;;;27.60;47.47
75972;BME280;64651;47.540;19.088;2023-06-24T09:15:37;100677.34;;;25.73;52.87
75972;BME280;64651;47.540;19.088;2023-06-24T09:20:41;100686.56;;;24.93;55.50
75972;BME280;64651;47.540;19.088;2023-06-24T09:25:55;100675.91;;;24.67;55.80
75972;BME280;64651;47.540;19.088;2023-06-24T09:31:11;100679.56;;;24.52;56.73
75972;BME280;64651;47.540;19.088;2023-06-24T09:36:16;100690.69;;;24.45;56.99
75972;BME280;64651;47.540;19.088;2023-06-24T09:41:18;100688.13;;;24.91;56.33
75972;BME280;64651;47.540;19.088;2023-06-24T09:46:21;100687.34;;;25.94;53.14
75972;BME280;64651;47.540;19.088;2023-06-24T09:51:24;100678.97;;;28.13;47.62
75972;BME280;64651;47.540;19.088;2023-06-24T09:56:27;100673.72;;;27.71;47.76
75972;BME280;64651;47.540;19.088;2023-06-24T10:01:31;100664.53;;;31.46;40.38
75972;BME280;64651;47.540;19.088;2023-06-24T10:06:34;100659.31;;;33.16;37.27
75972;BME280;64651;47.540;19.088;2023-06-24T10:11:36;100665.38;;;31.36;38.81
75972;BME280;64651;47.540;19.088;2023-06-24T10:16:40;100655.47;;;29.43;43.21
75972;BME280;64651;47.540;19.088;2023-06-24T10:21:57;100641.94;;;31.83;39.31
75972;BME280;64651;47.540;19.088;2023-06-24T10:27:04;100644.53;;;32.12;38.09
75972;BME280;64651;47.540;19.088;2023-06-24T10:32:08;100621.72;;;32.19;37.99
75972;BME280;64651;47.540;19.088;2023-06-24T10:37:20;100628.50;;;32.70;37.51
75972;BME280;64651;47.540;19.088;2023-06-24T10:42:39;100613.44;;;34.10;34.76
75972;BME280;64651;47.540;19.088;2023-06-24T10:47:47;100618.44;;;32.58;36.99
75972;BME280;64651;47.540;19.088;2023-06-24T10:52:51;100616.87;;;31.61;38.25
75972;BME280;64651;47.540;19.088;2023-06-24T10:58:07;100612.12;;;33.41;36.05
75972;BME280;64651;47.540;19.088;2023-06-24T11:03:15;100621.44;;;33.15;35.93
75972;BME280;64651;47.540;19.088;2023-06-24T11:08:17;100623.19;;;32.34;37.17
75972;BME280;64651;47.540;19.088;2023-06-24T11:13:20;100633.91;;;30.81;40.16
75972;BME280;64651;47.540;19.088;2023-06-24T11:18:22;100631.53;;;32.52;36.98
75972;BME280;64651;47.540;19.088;2023-06-24T11:23:25;100625.22;;;31.27;39.60
75972;BME280;64651;47.540;19.088;2023-06-24T11:28:31;100627.03;;;31.62;38.84
75972;BME280;64651;47.540;19.088;2023-06-24T11:33:34;100614.38;;;33.80;34.97
75972;BME280;64651;47.540;19.088;2023-06-24T11:38:36;100619.53;;;31.27;39.20
75972;BME280;64651;47.540;19.088;2023-06-24T11:43:45;100602.59;;;33.52;35.90
75972;BME280;64651;47.540;19.088;2023-06-24T11:48:50;100605.56;;;33.95;34.73
75972;BME280;64651;47.540;19.088;2023-06-24T11:53:52;100587.69;;;34.37;33.53
75972;BME280;64651;47.540;19.088;2023-06-24T11:58:55;100574.22;;;34.77;33.30
75972;BME280;64651;47.540;19.088;2023-06-24T12:04:00;100567.50;;;32.67;36.51
75972;BME280;64651;47.540;19.088;2023-06-24T12:09:03;100560.59;;;32.27;37.95
75972;BME280;64651;47.540;19.088;2023-06-24T12:14:08;100568.66;;;33.57;35.76
75972;BME280;64651;47.540;19.088;2023-06-24T12:19:10;100551.50;;;35.26;32.15
75972;BME280;64651;47.540;19.088;2023-06-24T12:24:13;100553.91;;;36.25;30.52
75972;BME280;64651;47.540;19.088;2023-06-24T12:29:16;100553.72;;;34.82;32.96
75972;BME280;64651;47.540;19.088;2023-06-24T12:34:18;100553.25;;;35.72;31.58
75972;BME280;64651;47.540;19.088;2023-06-24T12:39:22;100565.38;;;30.68;40.42
75972;BME280;64651;47.540;19.088;2023-06-24T12:44:28;100543.62;;;32.84;37.20
75972;BME280;64651;47.540;19.088;2023-06-24T12:49:33;100547.22;;;31.79;38.50
75972;BME280;64651;47.540;19.088;2023-06-24T12:54:36;100548.13;;;29.81;42.37
75972;BME280;64651;47.540;19.088;2023-06-24T12:59:38;100537.75;;;32.64;36.71
75972;BME280;64651;47.540;19.088;2023-06-24T13:04:40;100538.34;;;29.32;43.16
75972;BME280;64651;47.540;19.088;2023-06-24T13:09:43;100518.97;;;30.92;41.00
75972;BME280;64651;47.540;19.088;2023-06-24T13:14:48;100530.19;;;31.72;39.38
75972;BME280;64651;47.540;19.088;2023-06-24T13:19:51;100535.53;;;31.67;39.25
75972;BME280;64651;47.540;19.088;2023-06-24T13:24:53;100542.09;;;32.80;37.40
75972;BME280;64651;47.540;19.088;2023-06-24T13:29:56;100542.66;;;32.94;37.74
75972;BME280;64651;47.540;19.088;2023-06-24T13:34:58;100546.91;;;33.40;36.37
75972;BME280;64651;47.540;19.088;2023-06-24T13:40:00;100551.31;;;33.45;35.62
75972;BME280;64651;47.540;19.088;2023-06-24T13:45:03;100542.50;;;32.07;38.18
75972;BME280;64651;47.540;19.088;2023-06-24T13:50:06;100561.09;;;32.56;38.25
75972;BME280;64651;47.540;19.088;2023-06-24T13:55:16;100546.78;;;32.59;38.18
75972;BME280;64651;47.540;19.088;2023-06-24T14:00:19;100558.28;;;31.70;39.19
75972;BME280;64651;47.540;19.088;2023-06-24T14:05:24;100547.38;;;32.78;37.78
75972;BME280;64651;47.540;19.088;2023-06-24T14:10:29;100549.75;;;32.15;38.13
75972;BME280;64651;47.540;19.088;2023-06-24T14:15:31;100540.41;;;32.11;38.56
75972;BME280;64651;47.540;19.088;2023-06-24T14:20:34;100521.00;;;34.24;35.38
75972;BME280;64651;47.540;19.088;2023-06-24T14:25:37;100527.09;;;33.02;37.13
75972;BME280;64651;47.540;19.088;2023-06-24T14:30:39;100524.53;;;31.17;40.48
75972;BME280;64651;47.540;19.088;2023-06-24T14:35:43;100533.41;;;30.43;42.41
75972;BME280;64651;47.540;19.088;2023-06-24T14:40:46;100531.09;;;29.74;44.60
75972;BME280;64651;47.540;19.088;2023-06-24T14:45:48;100531.06;;;30.06;43.25
75972;BME280;64651;47.540;19.088;2023-06-24T14:50:50;100514.28;;;31.78;40.13
75972;BME280;64651;47.540;19.088;2023-06-24T14:55:53;100502.44;;;31.39;40.37
75972;BME280;64651;47.540;19.088;2023-06-24T15:00:55;100504.66;;;30.19;42.79
75972;BME280;64651;47.540;19.088;2023-06-24T15:05:58;100500.12;;;30.54;42.41
75972;BME280;64651;47.540;19.088;2023-06-24T15:11:00;100498.94;;;30.37;42.61
75972;BME280;64651;47.540;19.088;2023-06-24T15:16:02;100497.31;;;30.33;42.52
75972;BME280;64651;47.540;19.088;2023-06-24T15:21:04;100485.59;;;31.11;41.36
75972;BME280;64651;47.540;19.088;2023-06-24T15:26:07;100499.00;;;30.16;43.16
75972;BME280;64651;47.540;19.088;2023-06-24T15:31:10;100493.81;;;29.65;44.28
75972;BME280;64651;47.540;19.088;2023-06-24T15:36:12;100492.97;;;29.96;43.51
75972;BME280;64651;47.540;19.088;2023-06-24T15:41:14;100488.09;;;29.86;43.84
75972;BME280;64651;47.540;19.088;2023-06-24T15:46:17;100492.62;;;29.37;45.20
75972;BME280;64651;47.540;19.088;2023-06-24T15:51:22;100481.75;;;28.24;48.01
75972;BME280;64651;47.540;19.088;2023-06-24T15:56:24;100481.81;;;26.48;51.74
75972;BME280;64651;47.540;19.088;2023-06-24T16:01:28;100497.69;;;26.00;53.93
75972;BME280;64651;47.540;19.088;2023-06-24T16:06:30;100500.12;;;25.72;55.14
75972;BME280;64651;47.540;19.088;2023-06-24T16:11:32;100482.94;;;26.10;54.23
75972;BME280;64651;47.540;19.088;2023-06-24T16:16:35;100477.84;;;25.93;54.74
75972;BME280;64651;47.540;19.088;2023-06-24T16:21:37;100469.72;;;26.48;53.31
75972;BME280;64651;47.540;19.088;2023-06-24T16:26:39;100469.72;;;26.81;52.54
75972;BME280;64651;47.540;19.088;2023-06-24T16:31:53;100468.06;;;27.17;50.94
75972;BME280;64651;47.540;19.088;2023-06-24T16:36:56;100483.09;;;26.21;53.85
75972;BME280;64651;47.540;19.088;2023-06-24T16:42:01;100483.16;;;26.24;53.47
75972;BME280;64651;47.540;19.088;2023-06-24T16:47:04;100490.66;;;26.17;53.60
75972;BME280;64651;47.540;19.088;2023-06-24T16:52:08;100473.59;;;26.33;53.06
75972;BME280;64651;47.540;19.088;2023-06-24T16:57:10;100469.50;;;26.30;53.69
75972;BME280;64651;47.540;19.088;2023-06-24T17:02:12;100475.38;;;25.62;55.73
75972;BME280;64651;47.540;19.088;2023-06-24T17:07:14;100476.91;;;25.10;57.46
75972;BME280;64651;47.540;19.088;2023-06-24T17:12:17;100475.56;;;25.00;57.61
75972;BME280;64651;47.540;19.088;2023-06-24T17:17:19;100479.59;;;24.61;58.99
75972;BME280;64651;47.540;19.088;2023-06-24T17:22:27;100481.75;;;24.48;59.86
75972;BME280;64651;47.540;19.088;2023-06-24T17:27:30;100480.06;;;24.24;60.32
75972;BME280;64651;47.540;19.088;2023-06-24T17:33:39;100487.03;;;24.50;59.57
75972;BME280;64651;47.540;19.088;2023-06-24T17:38:45;100489.16;;;24.56;59.23
75972;BME280;64651;47.540;19.088;2023-06-24T17:43:54;100480.50;;;24.46;59.68
75972;BME280;64651;47.540;19.088;2023-06-24T17:48:58;100486.25;;;24.14;60.45
75972;BME280;64651;47.540;19.088;2023-06-24T17:54:03;100489.91;;;23.99;60.96
75972;BME280;64651;47.540;19.088;2023-06-24T17:59:10;100490.75;;;23.65;61.83
75972;BME280;64651;47.540;19.088;2023-06-24T18:04:15;100491.69;;;23.53;62.02
75972;BME280;64651;47.540;19.088;2023-06-24T18:09:19;100474.19;;;23.28;62.18
75972;BME280;64651;47.540;19.088;2023-06-24T18:14:22;100491.09;;;23.00;62.98
75972;BME280;64651;47.540;19.088;2023-06-24T18:19:25;100488.75;;;22.87;63.79
75972;BME280;64651;47.540;19.088;2023-06-24T18:24:27;100487.22;;;22.61;64.82
75972;BME280;64651;47.540;19.088;2023-06-24T18:29:33;100486.94;;;22.39;65.68
75972;BME280;64651;47.540;19.088;2023-06-24T18:34:37;100487.84;;;22.15;66.63
75972;BME280;64651;47.540;19.088;2023-06-24T18:39:40;100489.75;;;22.11;66.83
75972;BME280;64651;47.540;19.088;2023-06-24T18:44:43;100491.16;;;22.05;66.29
75972;BME280;64651;47.540;19.088;2023-06-24T18:49:45;100507.97;;;21.93;66.94
75972;BME280;64651;47.540;19.088;2023-06-24T18:54:47;100510.69;;;21.89;66.93
75972;BME280;64651;47.540;19.088;2023-06-24T18:59:50;100513.47;;;21.89;66.20
75972;BME280;64651;47.540;19.088;2023-06-24T19:04:52;100536.47;;;21.82;65.68
75972;BME280;64651;47.540;19.088;2023-06-24T19:09:54;100533.44;;;21.75;65.80
75972;BME280;64651;47.540;19.088;2023-06-24T19:15:02;100550.13;;;21.60;66.35
75972;BME280;64651;47.540;19.088;2023-06-24T19:20:07;100550.13;;;21.48;66.91
75972;BME280;64651;47.540;19.088;2023-06-24T19:25:10;100560.47;;;21.35;67.72
75972;BME280;64651;47.540;19.088;2023-06-24T19:30:13;100574.28;;;21.07;68.90
75972;BME280;64651;47.540;19.088;2023-06-24T19:35:17;100590.31;;;20.86;69.48
75972;BME280;64651;47.540;19.088;2023-06-24T19:40:20;100607.56;;;20.88;69.52
75972;BME280;64651;47.540;19.088;2023-06-24T19:45:27;100608.31;;;20.76;69.94
75972;BME280;64651;47.540;19.088;2023-06-24T19:50:29;100611.66;;;20.70;70.14
75972;BME280;64651;47.540;19.088;2023-06-24T19:55:31;100617.47;;;20.64;70.41
75972;BME280;64651;47.540;19.088;2023-06-24T20:00:34;100614.91;;;20.59;70.67
75972;BME280;64651;47.540;19.088;2023-06-24T20:05:36;100615.28;;;20.49;71.13
75972;BME280;64651;47.540;19.088;2023-06-24T20:10:39;100609.78;;;20.41;71.63
75972;BME280;64651;47.540;19.088;2023-06-24T20:15:42;100618.78;;;20.46;71.64
75972;BME280;64651;47.540;19.088;2023-06-24T20:20:45;100620.81;;;20.37;71.96
75972;BME280;64651;47.540;19.088;2023-06-24T20:25:48;100624.91;;;20.40;71.88
75972;BME280;64651;47.540;19.088;2023-06-24T20:30:50;100617.53;;;20.35;72.07
75972;BME280;64651;47.540;19.088;2023-06-24T20:35:53;100611.78;;;20.32;72.29
75972;BME280;64651;47.540;19.088;2023-06-24T20:40:57;100606.87;;;20.29;72.34
75972;BME280;64651;47.540;19.088;2023-06-24T20:46:00;100606.47;;;20.18;72.80
75972;BME280;64651;47.540;19.088;2023-06-24T20:51:03;100615.56;;;20.06;73.31
75972;BME280;64651;47.540;19.088;2023-06-24T20:56:06;100603.00;;;19.92;73.95
75972;BME280;64651;47.540;19.088;2023-06-24T21:01:09;100610.31;;;19.75;74.53
75972;BME280;64651;47.540;19.088;2023-06-24T21:06:12;100608.38;;;19.67;74.93
75972;BME280;64651;47.540;19.088;2023-06-24T21:11:14;100607.25;;;19.60;75.58
75972;BME280;64651;47.540;19.088;2023-06-24T21:16:16;100606.91;;;19.70;75.76
75972;BME280;64651;47.540;19.088;2023-06-24T21:21:19;100614.78;;;19.68;76.76
75972;BME280;64651;47.540;19.088;2023-06-24T21:26:21;100620.69;;;19.66;76.53
75972;BME280;64651;47.540;19.088;2023-06-24T21:31:26;100628.41;;;19.69;76.29
75972;BME280;64651;47.540;19.088;2023-06-24T21:36:28;100628.56;;;19.64;76.64
75972;BME280;64651;47.540;19.088;2023-06-24T21:41:31;100609.03;;;19.64;76.70
75972;BME280;64651;47.540;19.088;2023-06-24T21:46:33;100617.25;;;19.69;76.43
75972;BME280;64651;47.540;19.088;2023-06-24T21:51:37;100616.56;;;19.72;76.46
75972;BME280;64651;47.540;19.088;2023-06-24T21:56:40;100620.88;;;19.70;76.79
75972;BME280;64651;47.540;19.088;2023-06-24T22:01:44;100613.34;;;19.53;77.68
75972;BME280;64651;47.540;19.088;2023-06-24T22:06:52;100615.69;;;19.51;78.10
75972;BME280;64651;47.540;19.088;2023-06-24T22:11:55;100615.00;;;19.54;78.42
75972;BME280;64651;47.540;19.088;2023-06-24T22:16:57;100609.28;;;19.51;78.44
75972;BME280;64651;47.540;19.088;2023-06-24T22:22:00;100620.44;;;19.51;79.01
75972;BME280;64651;47.540;19.088;2023-06-24T22:27:02;100628.31;;;19.49;79.16
75972;BME280;64651;47.540;19.088;2023-06-24T22:32:07;100618.47;;;19.42;79.82
75972;BME280;64651;47.540;19.088;2023-06-24T22:37:10;100619.47;;;19.29;80.39
75972;BME280;64651;47.540;19.088;2023-06-24T22:42:12;100617.31;;;19.35;80.63
75972;BME280;64651;47.540;19.088;2023-06-24T22:47:15;100623.19;;;19.59;79.98
75972;BME280;64651;47.540;19.088;2023-06-24T22:52:17;100625.47;;;19.95;78.85
75972;BME280;64651;47.540;19.088;2023-06-24T22:57:19;100627.37;;;20.12;78.29
75972;BME280;64651;47.540;19.088;2023-06-24T23:02:22;100615.75;;;20.31;77.78
75972;BME280;64651;47.540;19.088;2023-06-24T23:07:25;100613.19;;;20.46;77.06
75972;BME280;64651;47.540;19.088;2023-06-24T23:12:28;100605.81;;;20.42;77.54
75972;BME280;64651;47.540;19.088;2023-06-24T23:17:30;100596.72;;;20.24;78.22
75972;BME280;64651;47.540;19.088;2023-06-24T23:22:33;100608.03;;;20.27;78.41
75972;BME280;64651;47.540;19.088;2023-06-24T23:27:37;100600.91;;;20.39;78.18
75972;BME280;64651;47.540;19.088;2023-06-24T23:32:41;100609.22;;;20.47;78.49
75972;BME280;64651;47.540;19.088;2023-06-24T23:37:46;100586.19;;;20.50;78.97
75972;BME280;64651;47.540;19.088;2023-06-24T23:42:49;100575.75;;;20.39;79.62
75972;BME280;64651;47.540;19.088;2023-06-24T23:47:52;100585.19;;;20.25;81.06
75972;BME280;64651;47.540;19.088;2023-06-24T23:52:54;100574.94;;;20.09;81.99
75972;BME280;64651;47.540;19.088;2023-06-24T23:57:56;100564.91;;;19.87;83.60
